createdAt,value
2022-09-16T00:01:16.702Z,6.30
2022-09-16T00:03:44.323Z,3.90
2022-09-16T00:06:21.249Z,5.00
2022-09-16T00:08:49.109Z,5.70
2022-09-16T00:11:17.232Z,3.10
2022-09-16T00:13:44.155Z,5.50
2022-09-16T00:16:14.241Z,5.20
2022-09-16T00:18:40.990Z,4.80
2022-09-16T00:21:08.970Z,4.90
2022-09-16T00:23:36.715Z,6.80
2022-09-16T00:26:04.110Z,6.00
2022-09-16T00:28:31.643Z,4.60
2022-09-16T00:31:02.075Z,4.30
2022-09-16T00:33:29.194Z,7.20
2022-09-16T00:36:07.454Z,4.60
2022-09-16T00:38:34.920Z,4.80
2022-09-16T00:41:01.894Z,4.00
2022-09-16T00:43:28.939Z,5.60
2022-09-16T00:46:00.229Z,3.90
2022-09-16T00:48:27.891Z,3.20
2022-09-16T00:50:57.591Z,3.80
2022-09-16T00:53:29.196Z,5.70
2022-09-16T00:55:56.860Z,4.20
2022-09-16T00:58:43.720Z,5.50
2022-09-16T01:01:10.649Z,5.20
2022-09-16T01:03:47.082Z,2.70
2022-09-16T01:06:14.228Z,5.70
2022-09-16T01:08:42.609Z,3.90
2022-09-16T01:11:09.485Z,3.40
2022-09-16T01:13:36.728Z,4.00
2022-09-16T01:16:07.277Z,4.00
2022-09-16T01:18:54.088Z,7.20
2022-09-16T01:21:44.570Z,4.80
2022-09-16T01:24:35.285Z,3.10
2022-09-16T01:27:37.697Z,2.90
2022-09-16T01:30:26.037Z,3.30
2022-09-16T01:32:52.790Z,2.80
2022-09-16T01:35:35.504Z,3.30
2022-09-16T01:38:19.611Z,3.00
2022-09-16T01:41:11.452Z,4.50
2022-09-16T01:43:41.380Z,3.80
2022-09-16T01:46:17.350Z,2.70
2022-09-16T01:49:07.035Z,3.00
2022-09-16T01:51:55.534Z,2.90
2022-09-16T01:54:30.033Z,2.70
2022-09-16T01:57:06.174Z,3.00
2022-09-16T01:59:54.962Z,3.90
2022-09-16T02:02:26.883Z,4.40
2022-09-16T02:04:58.171Z,2.80
2022-09-16T02:07:31.570Z,2.10
2022-09-16T02:10:01.467Z,2.90
2022-09-16T02:12:31.343Z,4.60
2022-09-16T02:15:01.810Z,2.70
2022-09-16T02:17:29.959Z,3.80
2022-09-16T02:19:58.175Z,4.00
2022-09-16T02:23:01.937Z,3.00
2022-09-16T02:25:28.807Z,4.00
2022-09-16T02:27:56.077Z,2.50
2022-09-16T02:30:23.302Z,3.40
2022-09-16T02:32:54.874Z,2.60
2022-09-16T02:35:22.228Z,4.30
2022-09-16T02:37:55.832Z,2.80
2022-09-16T02:40:54.087Z,3.40
2022-09-16T02:43:21.085Z,3.70
2022-09-16T02:45:53.998Z,3.20
2022-09-16T02:48:47.506Z,2.50
2022-09-16T02:51:50.011Z,3.10
2022-09-16T02:54:30.440Z,2.60
2022-09-16T02:56:57.691Z,3.30
2022-09-16T02:59:25.371Z,4.40
2022-09-16T03:01:52.280Z,2.80
2022-09-16T03:04:19.704Z,4.10
2022-09-16T03:06:47.004Z,4.00
2022-09-16T03:09:14.686Z,2.40
2022-09-16T03:11:47.918Z,5.50
2022-09-16T03:14:20.105Z,3.90
2022-09-16T03:17:00.891Z,3.30
2022-09-16T03:19:43.917Z,4.10
2022-09-16T03:22:46.154Z,4.70
2022-09-16T03:25:16.115Z,5.40
2022-09-16T03:27:51.364Z,3.30
2022-09-16T03:30:18.294Z,1.90
2022-09-16T03:32:59.049Z,6.60
2022-09-16T03:35:28.587Z,4.40
2022-09-16T03:37:56.145Z,3.70
2022-09-16T03:40:23.079Z,3.30
2022-09-16T03:42:51.467Z,4.90
2022-09-16T03:45:21.846Z,4.70
2022-09-16T03:47:50.752Z,2.20
2022-09-16T03:50:18.302Z,2.60
2022-09-16T03:52:45.156Z,2.60
2022-09-16T03:55:12.170Z,4.00
2022-09-16T03:57:40.239Z,2.80
2022-09-16T04:00:08.760Z,4.40
2022-09-16T04:02:38.746Z,4.00
2022-09-16T04:05:06.424Z,4.60
2022-09-16T04:07:33.705Z,2.90
2022-09-16T04:10:01.772Z,3.00
2022-09-16T04:14:56.282Z,3.50
2022-09-16T04:17:23.840Z,3.50
2022-09-16T04:19:51.639Z,5.10
2022-09-16T04:22:18.698Z,3.80
2022-09-16T04:24:45.594Z,2.40
2022-09-16T04:27:12.592Z,3.00
2022-09-16T04:29:39.558Z,4.50
2022-09-16T04:32:06.475Z,3.60
2022-09-16T04:34:33.779Z,3.90
2022-09-16T04:37:00.615Z,5.10
2022-09-16T04:39:27.540Z,5.20
2022-09-16T04:41:54.379Z,2.50
2022-09-16T04:44:21.220Z,5.10
2022-09-16T04:46:48.797Z,3.20
2022-09-16T04:49:15.886Z,4.10
2022-09-16T04:51:42.988Z,4.80
2022-09-16T04:54:11.787Z,5.00
2022-09-16T04:59:07.816Z,4.40
2022-09-16T05:01:37.053Z,4.20
2022-09-16T05:04:05.604Z,3.70
2022-09-16T05:06:35.127Z,3.70
2022-09-16T05:09:02.243Z,5.10
2022-09-16T05:11:31.427Z,4.80
2022-09-16T05:13:59.014Z,4.50
2022-09-16T05:16:25.918Z,4.10
2022-09-16T05:18:55.075Z,3.20
2022-09-16T05:23:49.206Z,3.20
2022-09-16T05:26:19.080Z,4.10
2022-09-16T05:28:46.802Z,3.80
2022-09-16T05:31:18.923Z,4.90
2022-09-16T05:33:47.941Z,4.50
2022-09-16T05:36:17.768Z,3.50
2022-09-16T05:38:59.186Z,3.70
2022-09-16T05:41:32.416Z,4.40
2022-09-16T05:44:00.653Z,4.60
2022-09-16T05:46:28.234Z,5.50
2022-09-16T05:48:56.648Z,5.10
2022-09-16T05:51:24.056Z,5.10
2022-09-16T05:53:51.465Z,2.90
2022-09-16T05:56:20.198Z,3.90
2022-09-16T06:01:15.260Z,5.30
2022-09-16T06:03:44.462Z,5.70
2022-09-16T06:06:24.763Z,5.00
2022-09-16T06:08:53.729Z,5.10
2022-09-16T06:11:25.447Z,5.10
2022-09-16T06:13:55.862Z,3.60
2022-09-16T06:16:23.876Z,7.70
2022-09-16T06:18:50.669Z,5.70
2022-09-16T06:21:17.806Z,5.40
2022-09-16T06:23:44.897Z,5.30
2022-09-16T06:26:17.410Z,6.10
2022-09-16T06:28:45.407Z,4.30
2022-09-16T06:31:14.856Z,4.30
2022-09-16T06:33:42.657Z,5.20
2022-09-16T06:36:11.838Z,5.00
2022-09-16T06:38:40.000Z,4.30
2022-09-16T06:41:08.489Z,6.90
2022-09-16T06:43:35.718Z,7.20
2022-09-16T06:46:05.652Z,3.20
2022-09-16T06:48:34.242Z,4.20
2022-09-16T06:51:02.262Z,4.70
2022-09-16T06:53:29.776Z,4.60
2022-09-16T06:56:00.972Z,6.30
2022-09-16T06:58:30.036Z,4.50
2022-09-16T07:00:56.957Z,3.90
2022-09-16T07:03:23.897Z,5.80
2022-09-16T07:06:00.505Z,4.00
2022-09-16T07:08:31.466Z,4.90
2022-09-16T07:11:10.925Z,3.80
2022-09-16T07:13:38.052Z,4.00
2022-09-16T07:16:13.636Z,4.00
2022-09-16T07:18:41.759Z,4.30
2022-09-16T07:21:13.835Z,3.80
2022-09-16T07:23:41.371Z,2.80
2022-09-16T08:00:33.235Z,6.90
2022-09-16T08:03:00.871Z,5.20
2022-09-16T08:05:27.933Z,6.10
2022-09-16T08:07:55.472Z,4.20
2022-09-16T08:10:22.426Z,5.60
2022-09-16T08:12:49.480Z,4.20
2022-09-16T08:17:44.623Z,6.40
2022-09-16T08:20:11.440Z,6.90
2022-09-16T08:22:38.386Z,5.30
2022-09-16T08:25:05.837Z,6.20
2022-09-16T08:27:36.329Z,4.90
2022-09-16T08:30:04.550Z,5.00
2022-09-16T08:32:32.321Z,4.00
2022-09-16T08:35:01.745Z,4.70
2022-09-16T08:37:29.366Z,4.80
2022-09-16T08:39:56.323Z,4.30
2022-09-16T08:42:38.582Z,5.50
2022-09-16T08:45:24.033Z,5.90
2022-09-16T08:48:28.772Z,5.70
2022-09-16T08:50:59.377Z,6.10
2022-09-16T08:53:47.008Z,5.70
2022-09-16T08:56:16.206Z,6.30
2022-09-16T08:58:49.045Z,7.80
2022-09-16T09:01:44.286Z,6.40
2022-09-16T09:04:12.960Z,4.80
2022-09-16T09:07:03.184Z,7.50
2022-09-16T09:09:58.676Z,4.80
2022-09-16T09:12:42.178Z,4.50
2022-09-16T09:15:28.117Z,5.70
2022-09-16T09:17:58.203Z,8.30
2022-09-16T09:20:49.926Z,6.70
2022-09-16T09:23:42.574Z,4.80
2022-09-16T09:26:09.762Z,5.20
2022-09-16T09:29:04.348Z,5.10
2022-09-16T09:32:02.634Z,8.90
2022-09-16T09:35:11.829Z,4.10
2022-09-16T09:38:34.682Z,5.50
2022-09-16T09:41:11.494Z,4.10
2022-09-16T09:43:48.743Z,6.70
2022-09-16T09:46:24.204Z,7.60
2022-09-16T09:49:13.044Z,7.70
2022-09-16T09:51:45.928Z,5.20
2022-09-16T09:54:29.975Z,6.20
2022-09-16T09:57:10.537Z,8.10
2022-09-16T09:59:41.606Z,4.50
2022-09-16T10:02:14.571Z,4.80
2022-09-16T10:04:41.711Z,5.00
2022-09-16T10:07:09.025Z,4.80
2022-09-16T10:09:36.520Z,5.30
2022-09-16T10:12:06.155Z,4.30
2022-09-16T10:14:34.924Z,4.20
2022-09-16T10:17:06.880Z,6.00
2022-09-16T10:19:40.996Z,4.60
2022-09-16T10:22:09.982Z,7.40
2022-09-16T10:24:42.249Z,6.30
2022-09-16T10:27:19.536Z,4.60
2022-09-16T10:29:47.012Z,5.10
2022-09-16T10:32:18.438Z,5.50
2022-09-16T10:34:45.659Z,6.20
2022-09-16T10:37:13.017Z,5.00
2022-09-16T10:39:46.287Z,5.70
2022-09-16T10:42:27.825Z,4.30
2022-09-16T10:44:56.930Z,3.60
2022-09-16T10:47:25.708Z,8.90
2022-09-16T10:49:55.247Z,4.30
2022-09-16T10:52:26.700Z,5.30
2022-09-16T10:54:54.145Z,3.30
2022-09-16T10:57:23.532Z,4.00
2022-09-16T11:00:00.773Z,5.00
2022-09-16T11:02:46.422Z,4.20
2022-09-16T11:05:26.174Z,5.40
2022-09-16T11:08:12.222Z,3.40
2022-09-16T11:10:56.622Z,4.20
2022-09-16T11:13:41.953Z,5.50
2022-09-16T11:16:26.219Z,4.90
2022-09-16T11:18:57.145Z,5.80
2022-09-16T11:21:49.399Z,5.90
2022-09-16T11:24:50.700Z,5.80
2022-09-16T11:27:37.291Z,5.40
2022-09-16T11:30:13.285Z,4.40
2022-09-16T11:33:02.167Z,4.00
2022-09-16T11:35:56.636Z,5.60
2022-09-16T11:38:26.447Z,4.30
2022-09-16T11:41:19.910Z,6.20
2022-09-16T11:44:16.042Z,4.40
2022-09-16T11:47:14.758Z,4.00
2022-09-16T11:49:59.283Z,4.60
2022-09-16T11:52:35.621Z,5.30
2022-09-16T11:55:20.896Z,4.50
2022-09-16T11:57:58.578Z,4.10
2022-09-16T12:00:25.665Z,4.80
2022-09-16T12:03:05.254Z,4.30
2022-09-16T12:05:53.653Z,4.40
2022-09-16T12:08:25.819Z,4.40
2022-09-16T12:10:55.913Z,5.80
2022-09-16T12:13:32.098Z,4.00
2022-09-16T12:16:09.714Z,2.50
2022-09-16T12:18:49.209Z,2.00
2022-09-16T12:21:34.710Z,3.10
2022-09-16T12:24:25.254Z,3.90
2022-09-16T12:26:57.723Z,4.00
2022-09-16T12:29:40.198Z,4.60
2022-09-16T12:32:18.417Z,3.60
2022-09-16T12:34:53.614Z,3.30
2022-09-16T12:37:31.482Z,4.40
2022-09-16T12:39:58.376Z,4.80
2022-09-16T12:43:04.253Z,3.70
2022-09-16T12:45:34.120Z,4.00
2022-09-16T12:48:22.264Z,3.80
2022-09-16T12:51:08.180Z,3.40
2022-09-16T12:53:52.017Z,3.80
2022-09-16T12:56:25.147Z,4.70
2022-09-16T12:59:04.488Z,3.10
2022-09-16T13:01:36.615Z,3.00
2022-09-16T13:04:13.095Z,3.00
2022-09-16T13:06:45.280Z,2.10
2022-09-16T13:09:15.974Z,4.90
2022-09-16T13:12:36.709Z,3.20
2022-09-16T13:14:52.582Z,3.60
2022-09-16T13:17:41.073Z,3.20
2022-09-16T13:22:51.767Z,4.10
2022-09-16T13:25:29.919Z,2.70
2022-09-16T13:27:59.039Z,2.60
2022-09-16T13:30:39.706Z,3.30
2022-09-16T13:33:09.697Z,3.40
2022-09-16T13:35:40.207Z,3.90
2022-09-16T13:38:19.611Z,3.60
2022-09-16T13:41:00.324Z,3.00
2022-09-16T13:43:38.302Z,2.30
2022-09-16T13:46:06.482Z,3.30
2022-09-16T13:51:40.286Z,2.90
2022-09-16T13:54:28.392Z,1.80
2022-09-16T13:56:58.842Z,2.70
2022-09-16T13:59:59.630Z,2.00
2022-09-16T14:02:44.826Z,2.70
2022-09-16T14:05:51.533Z,3.00
2022-09-16T14:08:43.519Z,4.20
2022-09-16T14:11:21.238Z,1.70
2022-09-16T14:14:29.853Z,4.60
2022-09-16T14:16:57.959Z,2.20
2022-09-16T14:19:27.879Z,2.00
2022-09-16T14:22:04.869Z,4.90
2022-09-16T14:24:39.635Z,3.00
2022-09-16T14:27:17.859Z,3.60
2022-09-16T14:30:01.976Z,2.20
2022-09-16T14:32:31.179Z,1.90
2022-09-16T14:35:00.927Z,1.70
2022-09-16T14:37:29.301Z,1.80
2022-09-16T14:39:57.388Z,1.80
2022-09-16T14:42:24.356Z,1.70
2022-09-16T14:44:53.344Z,2.20
2022-09-16T14:47:51.761Z,1.40
2022-09-16T14:50:25.638Z,3.20
2022-09-16T14:53:03.757Z,2.90
2022-09-16T14:55:33.137Z,1.90
2022-09-16T14:58:00.611Z,2.60
2022-09-16T15:00:38.666Z,3.50
2022-09-16T15:03:14.774Z,2.60
2022-09-16T15:05:43.071Z,1.90
2022-09-16T15:08:26.467Z,2.70
2022-09-16T15:10:56.432Z,3.30
2022-09-16T15:13:45.121Z,2.90
2022-09-16T15:16:16.993Z,1.90
2022-09-16T15:19:04.756Z,2.80
2022-09-16T15:21:34.421Z,2.80
2022-09-16T15:26:41.579Z,4.60
2022-09-16T15:29:17.505Z,3.30
2022-09-16T15:31:45.353Z,2.50
2022-09-16T15:34:21.249Z,2.90
2022-09-16T15:36:56.016Z,3.30
2022-09-16T15:39:39.010Z,3.00
2022-09-16T15:42:10.680Z,2.70
2022-09-16T15:44:43.166Z,3.00
2022-09-16T15:47:35.218Z,2.90
2022-09-16T15:50:12.404Z,2.60
2022-09-16T15:53:01.745Z,4.80
2022-09-16T15:55:57.080Z,4.10
2022-09-16T15:58:33.039Z,6.60
2022-09-16T16:01:05.070Z,5.00
2022-09-16T16:03:46.196Z,3.70
2022-09-16T16:06:14.133Z,5.30
2022-09-16T16:08:41.702Z,2.90
2022-09-16T16:11:16.414Z,5.20
2022-09-16T16:13:44.250Z,4.10
2022-09-16T16:16:13.054Z,3.30
2022-09-16T16:18:41.767Z,4.70
2022-09-16T16:21:10.511Z,2.70
2022-09-16T16:23:39.470Z,3.30
2022-09-16T16:26:07.658Z,3.80
2022-09-16T16:28:35.100Z,3.40
2022-09-16T16:31:12.493Z,4.30
2022-09-16T16:33:45.062Z,3.50
2022-09-16T16:36:17.009Z,4.20
2022-09-16T16:38:45.618Z,2.10
2022-09-16T16:41:13.681Z,2.60
2022-09-16T16:43:41.007Z,3.30
2022-09-16T16:46:07.969Z,3.00
2022-09-16T16:48:35.922Z,3.70
2022-09-16T16:51:04.928Z,1.80
2022-09-16T16:53:32.124Z,5.10
2022-09-16T16:56:15.250Z,3.50
2022-09-16T16:58:43.766Z,4.50
2022-09-16T17:01:18.365Z,5.60
2022-09-16T17:03:46.485Z,1.80
2022-09-16T17:06:13.432Z,3.10
2022-09-16T17:08:40.451Z,4.00
2022-09-16T17:11:20.611Z,4.60
2022-09-16T17:13:52.068Z,4.10
2022-09-16T17:16:21.672Z,6.30
2022-09-16T17:18:49.005Z,8.20
2022-09-16T17:21:30.891Z,5.80
2022-09-16T17:23:58.486Z,6.00
2022-09-16T17:26:25.552Z,5.10
2022-09-16T17:28:52.966Z,7.00
2022-09-16T17:31:25.650Z,6.00
2022-09-16T17:33:53.848Z,4.90
2022-09-16T17:36:22.305Z,5.60
2022-09-16T17:38:49.359Z,6.00
2022-09-16T17:41:16.895Z,10.30
2022-09-16T17:43:44.112Z,8.30
2022-09-16T17:46:16.177Z,7.70
2022-09-16T17:48:43.242Z,8.30
2022-09-16T17:51:10.543Z,12.30
2022-09-16T17:53:37.800Z,31.30
2022-09-16T17:56:09.810Z,27.20
2022-09-16T17:58:38.111Z,21.30
2022-09-16T18:01:12.643Z,26.30
2022-09-16T18:03:40.435Z,24.70
2022-09-16T18:06:12.484Z,21.10
2022-09-16T18:08:40.433Z,19.50
2022-09-16T18:11:09.699Z,14.80
2022-09-16T18:13:37.588Z,16.30
2022-09-16T18:16:17.078Z,16.80
2022-09-16T18:18:44.687Z,17.90
2022-09-16T18:21:17.997Z,16.40
2022-09-16T18:23:51.578Z,17.20
2022-09-16T18:26:19.063Z,15.70
2022-09-16T18:29:08.551Z,16.00
2022-09-16T18:31:35.478Z,16.80
2022-09-16T18:34:04.256Z,14.60
2022-09-16T18:36:32.854Z,16.60
2022-09-16T18:38:59.847Z,16.70
2022-09-16T18:41:28.766Z,16.60
2022-09-16T18:44:00.788Z,16.00
2022-09-16T18:46:32.249Z,12.80
2022-09-16T18:48:59.761Z,14.20
2022-09-16T18:51:37.539Z,15.40
2022-09-16T18:54:07.051Z,13.40
2022-09-16T18:56:35.362Z,13.90
2022-09-16T18:59:21.087Z,16.00
2022-09-16T19:01:49.171Z,11.80
2022-09-16T19:04:18.468Z,13.80
2022-09-16T19:06:47.582Z,12.60
2022-09-16T19:09:16.439Z,11.40
2022-09-16T19:11:43.958Z,13.40
2022-09-16T19:14:14.130Z,11.70
2022-09-16T19:16:42.275Z,11.50
2022-09-16T19:19:13.667Z,9.30
2022-09-16T19:21:42.148Z,11.10
2022-09-16T19:24:14.570Z,10.60
2022-09-16T19:26:42.216Z,11.50
2022-09-16T19:29:09.619Z,13.30
2022-09-16T19:31:40.387Z,12.90
2022-09-16T19:34:07.196Z,14.00
2022-09-16T19:36:34.520Z,11.70
2022-09-16T19:39:02.037Z,12.80
2022-09-16T19:41:30.972Z,14.70
2022-09-16T19:46:26.866Z,12.60
2022-09-16T19:48:54.350Z,14.90
2022-09-16T19:51:23.085Z,12.40
2022-09-16T19:53:50.337Z,11.20
2022-09-16T19:56:21.365Z,10.70
2022-09-16T19:58:48.376Z,10.80
2022-09-16T20:01:26.075Z,13.40
2022-09-16T20:03:54.077Z,12.00
2022-09-16T20:06:26.423Z,11.60
2022-09-16T20:08:58.761Z,11.90
2022-09-16T20:11:31.614Z,14.00
2022-09-16T20:14:00.346Z,19.00
2022-09-16T20:16:35.769Z,19.90
2022-09-16T20:19:07.381Z,22.10
2022-09-16T20:21:35.329Z,15.20
2022-09-16T20:24:05.859Z,19.40
2022-09-16T20:26:33.094Z,18.90
2022-09-16T20:28:59.968Z,15.10
2022-09-16T20:31:29.859Z,14.50
2022-09-16T20:33:57.408Z,17.00
2022-09-16T20:36:25.216Z,17.80
2022-09-16T20:38:52.614Z,14.10
2022-09-16T20:41:21.439Z,17.20
2022-09-16T20:46:20.183Z,14.00
2022-09-16T20:48:47.794Z,14.60
2022-09-16T20:51:19.242Z,11.90
2022-09-16T20:53:57.596Z,12.70
2022-09-16T20:56:24.767Z,15.20
2022-09-16T20:58:51.611Z,10.30
2022-09-16T21:01:20.923Z,11.70
2022-09-16T21:03:54.898Z,13.90
2022-09-16T21:06:22.427Z,10.80
2022-09-16T21:08:52.279Z,11.40
2022-09-16T21:11:19.472Z,13.50
2022-09-16T21:13:47.928Z,11.70
2022-09-16T21:16:18.246Z,10.10
2022-09-16T21:18:45.102Z,12.30
2022-09-16T21:21:12.822Z,8.10
2022-09-16T21:23:39.972Z,7.30
2022-09-16T21:26:17.584Z,7.40
2022-09-16T21:28:45.192Z,7.00
2022-09-16T21:31:14.415Z,11.40
2022-09-16T21:33:42.539Z,9.50
2022-09-16T21:36:11.548Z,12.60
2022-09-16T21:38:38.771Z,12.10
2022-09-16T21:41:10.412Z,12.20
2022-09-16T21:43:45.474Z,20.30
2022-09-16T21:46:13.228Z,23.00
2022-09-16T21:48:40.724Z,15.90
2022-09-16T21:51:12.002Z,17.30
2022-09-16T21:53:42.917Z,17.20
2022-09-16T21:56:14.527Z,16.10
2022-09-16T21:58:42.190Z,29.70
2022-09-16T22:01:09.055Z,28.00
2022-09-16T22:03:36.698Z,26.70
2022-09-16T22:06:07.153Z,28.70
2022-09-16T22:08:35.897Z,26.20
2022-09-16T22:11:13.333Z,24.30
2022-09-16T22:13:40.912Z,26.40
2022-09-16T22:16:08.298Z,25.70
2022-09-16T22:18:37.549Z,29.80
2022-09-16T22:21:09.216Z,24.10
2022-09-16T22:23:37.367Z,17.90
2022-09-16T22:26:05.547Z,20.70
2022-09-16T22:28:33.304Z,17.10
2022-09-16T22:31:13.726Z,19.60
2022-09-16T22:33:41.630Z,16.00
2022-09-16T22:36:13.301Z,15.30
2022-09-16T22:38:40.445Z,15.20
2022-09-16T22:41:08.711Z,10.80
2022-09-16T22:43:36.899Z,14.90
2022-09-16T22:46:08.331Z,10.60
2022-09-16T22:48:35.481Z,9.80
2022-09-16T22:51:02.811Z,9.70
2022-09-16T22:53:29.987Z,10.90
2022-09-16T22:55:58.280Z,15.00
2022-09-16T22:58:25.563Z,11.50
2022-09-16T23:00:53.164Z,10.20
2022-09-16T23:03:20.805Z,10.90
2022-09-16T23:06:09.154Z,10.70
2022-09-16T23:08:39.916Z,13.10
2022-09-16T23:11:08.612Z,6.80
2022-09-16T23:13:35.943Z,5.80
2022-09-16T23:16:07.025Z,6.90
2022-09-16T23:18:34.962Z,7.20
2022-09-16T23:21:09.536Z,8.50
2022-09-16T23:23:41.230Z,7.60
2022-09-16T23:26:10.809Z,6.90
2022-09-16T23:28:37.620Z,8.00
2022-09-16T23:31:06.632Z,8.50
2022-09-16T23:33:33.869Z,13.60
2022-09-16T23:36:00.720Z,9.20
2022-09-16T23:38:28.228Z,8.50
2022-09-16T23:40:55.281Z,7.90
2022-09-16T23:43:24.023Z,10.20
2022-09-16T23:45:50.848Z,14.70
2022-09-16T23:48:17.828Z,16.50
2022-09-16T23:50:45.043Z,15.50
2022-09-16T23:53:12.131Z,18.90
2022-09-16T23:55:43.706Z,19.90
2022-09-16T23:58:11.323Z,16.30
